Time;durP1;ratioP1;P1;durP2;ratioP2;P2;SDS_P1;SDS_P2;PMS_P1;PMS_P2;Temp;Humidity;BMP_temperature;BMP_pressure;BME280_temperature;BME280_humidity;BME280_pressure;Samples;Min_cycle;Max_cycle;Signal;HPM_P1;HPM_P2
2022/12/17 13:05:55;;;;;;;21.48;17.45;;;;;;;;;;5015197;28;20465;-82
2022/12/17 13:08:22;;;;;;;21.35;17.58;;;;;;;;;;5050221;28;20389;-82
2022/12/17 13:10:49;;;;;;;19.48;16.75;;;;;;;;;;5043991;28;20727;-83
2022/12/17 13:13:15;;;;;;;21.25;17.80;;;;;;;;;;5051198;28;20447;-82
2022/12/17 13:15:45;;;;;;;19.10;17.10;;;;;;;;;;5051069;28;20843;-83
2022/12/17 13:18:23;;;;;;;20.73;18.23;;;;;;;;;;5054640;28;20383;-82
2022/12/17 13:21:15;;;;;;;23.70;19.73;;;;;;;;;;5050396;28;20429;-83
2022/12/17 13:23:42;;;;;;;19.20;17.15;;;;;;;;;;5008288;28;20388;-83
2022/12/17 13:26:14;;;;;;;20.02;17.55;;;;;;;;;;5047032;28;20380;-83
2022/12/17 13:28:40;;;;;;;19.40;17.38;;;;;;;;;;5049342;28;20389;-83
2022/12/17 13:31:15;;;;;;;19.08;17.08;;;;;;;;;;5051255;28;20405;-83
2022/12/17 13:33:50;;;;;;;21.48;19.15;;;;;;;;;;5037401;28;20431;-83
2022/12/17 13:36:22;;;;;;;23.98;20.05;;;;;;;;;;5037245;28;20385;-83
2022/12/17 13:39:14;;;;;;;20.90;18.70;;;;;;;;;;5050095;28;20440;-84
2022/12/17 13:41:40;;;;;;;21.02;18.73;;;;;;;;;;5005175;28;20456;-84
2022/12/17 13:44:42;;;;;;;20.05;17.92;;;;;;;;;;5053518;28;20381;-85
2022/12/17 13:47:19;;;;;;;23.10;19.93;;;;;;;;;;4971523;28;20446;-84
2022/12/17 13:49:49;;;;;;;22.13;19.47;;;;;;;;;;5043096;28;20474;-85
2022/12/17 13:52:17;;;;;;;23.83;19.77;;;;;;;;;;5053400;28;20455;-85
2022/12/17 13:54:43;;;;;;;26.35;22.08;;;;;;;;;;5043975;28;20467;-82
2022/12/17 13:57:14;;;;;;;21.20;18.17;;;;;;;;;;5035916;28;20460;-82
2022/12/17 13:59:40;;;;;;;21.33;17.92;;;;;;;;;;5041349;28;20407;-82
2022/12/17 14:02:06;;;;;;;18.80;16.70;;;;;;;;;;5036270;28;20445;-83
2022/12/17 14:04:32;;;;;;;23.75;18.73;;;;;;;;;;5038578;28;20383;-82
2022/12/17 14:06:59;;;;;;;25.50;18.73;;;;;;;;;;5041026;28;20791;-82
2022/12/17 14:09:38;;;;;;;22.27;18.73;;;;;;;;;;5038859;28;20482;-83
2022/12/17 14:12:24;;;;;;;24.48;19.92;;;;;;;;;;5036369;28;20803;-85
2022/12/17 14:14:58;;;;;;;21.63;17.98;;;;;;;;;;5033981;28;20883;-82
2022/12/17 14:17:25;;;;;;;24.37;18.87;;;;;;;;;;5036089;28;20458;-82
2022/12/17 14:20:05;;;;;;;20.58;17.35;;;;;;;;;;5037290;28;20387;-82
2022/12/17 14:22:35;;;;;;;19.10;17.10;;;;;;;;;;5035166;28;20467;-83
2022/12/17 14:25:01;;;;;;;20.42;18.13;;;;;;;;;;5018148;28;20819;-82
2022/12/17 14:27:31;;;;;;;19.35;17.23;;;;;;;;;;5034290;28;20747;-83
2022/12/17 14:29:57;;;;;;;20.58;18.25;;;;;;;;;;5034091;28;20436;-83
2022/12/17 14:32:31;;;;;;;24.23;20.88;;;;;;;;;;5033295;28;20407;-83
2022/12/17 14:34:58;;;;;;;24.75;19.65;;;;;;;;;;5037321;28;20395;-83
2022/12/17 14:37:25;;;;;;;23.80;19.80;;;;;;;;;;5038999;28;20878;-83
2022/12/17 14:39:52;;;;;;;20.48;17.02;;;;;;;;;;5030196;28;20425;-82
2022/12/17 14:42:28;;;;;;;18.67;16.70;;;;;;;;;;5053554;28;20425;-82
2022/12/17 14:44:55;;;;;;;17.50;15.25;;;;;;;;;;5049074;28;20933;-82
2022/12/17 14:47:24;;;;;;;17.27;14.98;;;;;;;;;;5051153;28;20390;-82
2022/12/17 14:49:49;;;;;;;16.48;14.77;;;;;;;;;;5054109;28;20793;-83
2022/12/17 14:52:22;;;;;;;16.67;14.97;;;;;;;;;;5053525;28;20435;-82
2022/12/17 14:54:48;;;;;;;17.65;15.30;;;;;;;;;;5045779;28;20383;-82
2022/12/17 14:57:19;;;;;;;16.48;14.75;;;;;;;;;;5049115;28;20377;-82
2022/12/17 14:59:45;;;;;;;17.02;15.30;;;;;;;;;;5051947;28;20772;-82
2022/12/17 15:02:22;;;;;;;17.42;15.63;;;;;;;;;;5048149;28;20378;-82
2022/12/17 15:04:49;;;;;;;19.20;16.43;;;;;;;;;;5052466;28;20433;-82
2022/12/17 15:07:16;;;;;;;19.75;17.30;;;;;;;;;;5053220;28;20385;-81
2022/12/17 15:09:43;;;;;;;19.55;17.35;;;;;;;;;;5052691;28;20396;-83
2022/12/17 15:12:09;;;;;;;21.15;18.67;;;;;;;;;;5053024;28;20406;-82
2022/12/17 15:14:35;;;;;;;19.75;17.63;;;;;;;;;;5053051;28;20435;-82
2022/12/17 15:17:01;;;;;;;19.25;17.17;;;;;;;;;;5049792;28;20373;-82
2022/12/17 15:19:27;;;;;;;18.50;16.60;;;;;;;;;;5045755;28;20881;-82
2022/12/17 15:21:53;;;;;;;18.60;16.70;;;;;;;;;;5051076;28;20516;-82
2022/12/17 15:24:20;;;;;;;19.70;16.77;;;;;;;;;;5042917;28;20389;-82
2022/12/17 15:26:46;;;;;;;20.48;16.83;;;;;;;;;;5046213;28;20385;-81
2022/12/17 15:29:12;;;;;;;18.33;16.42;;;;;;;;;;5052827;28;20451;-82
2022/12/17 15:31:38;;;;;;;18.50;16.60;;;;;;;;;;5052449;28;20437;-82
2022/12/17 15:34:05;;;;;;;19.05;16.60;;;;;;;;;;5052842;28;20392;-82
2022/12/17 15:36:31;;;;;;;22.30;18.77;;;;;;;;;;5050450;28;20378;-82
2022/12/17 15:38:57;;;;;;;20.35;17.85;;;;;;;;;;5051990;28;20382;-83
2022/12/17 15:44:08;;;;;;;22.50;18.15;;;;;;;;;;5052956;28;20388;-81
2022/12/17 15:46:34;;;;;;;25.30;19.48;;;;;;;;;;5052897;28;20377;-83
2022/12/17 15:49:01;;;;;;;23.27;18.42;;;;;;;;;;5052709;28;20397;-81
2022/12/17 15:51:27;;;;;;;27.88;20.90;;;;;;;;;;5052782;28;20405;-84
2022/12/17 15:53:53;;;;;;;26.13;19.92;;;;;;;;;;5051955;28;20450;-83
2022/12/17 15:56:20;;;;;;;23.20;18.95;;;;;;;;;;5052848;28;20389;-83
2022/12/17 15:58:46;;;;;;;23.35;19.13;;;;;;;;;;5052383;28;20442;-82
2022/12/17 16:01:12;;;;;;;23.77;19.17;;;;;;;;;;5052072;28;20385;-83
2022/12/17 16:03:38;;;;;;;21.50;18.70;;;;;;;;;;5052604;28;20518;-83
2022/12/17 16:06:04;;;;;;;25.35;19.83;;;;;;;;;;5052281;28;20381;-83
2022/12/17 16:08:30;;;;;;;24.73;20.60;;;;;;;;;;5050627;28;20467;-83
2022/12/17 16:10:56;;;;;;;22.30;19.65;;;;;;;;;;5051826;28;20878;-83
2022/12/17 16:13:22;;;;;;;23.85;19.45;;;;;;;;;;5048654;28;20374;-83
2022/12/17 16:15:57;;;;;;;24.58;21.00;;;;;;;;;;5051592;28;20385;-83
2022/12/17 16:18:24;;;;;;;21.70;19.15;;;;;;;;;;5049003;28;20377;-83
2022/12/17 16:20:50;;;;;;;21.40;19.10;;;;;;;;;;5050338;28;20381;-82
2022/12/17 16:23:16;;;;;;;22.67;19.73;;;;;;;;;;5040432;28;20933;-83
2022/12/17 16:25:42;;;;;;;21.73;18.05;;;;;;;;;;5051463;28;20395;-81
2022/12/17 16:28:08;;;;;;;20.83;18.52;;;;;;;;;;5052172;28;20381;-82
2022/12/17 16:30:34;;;;;;;19.40;17.35;;;;;;;;;;5051995;28;20469;-82
2022/12/17 16:33:00;;;;;;;19.77;17.33;;;;;;;;;;5051999;28;20492;-83
2022/12/17 16:35:27;;;;;;;20.08;17.70;;;;;;;;;;5052149;28;20431;-81
2022/12/17 16:37:55;;;;;;;19.40;16.65;;;;;;;;;;5050623;28;20445;-81
2022/12/17 16:40:21;;;;;;;20.50;17.50;;;;;;;;;;5050416;28;20436;-80
2022/12/17 16:42:47;;;;;;;19.95;17.45;;;;;;;;;;5051872;28;20381;-83
2022/12/17 16:45:13;;;;;;;19.55;17.35;;;;;;;;;;5051212;28;20805;-81
2022/12/17 16:47:39;;;;;;;21.70;18.17;;;;;;;;;;5048716;28;20417;-82
2022/12/17 16:50:05;;;;;;;22.60;19.25;;;;;;;;;;5050776;28;20381;-84
2022/12/17 16:52:31;;;;;;;23.70;19.85;;;;;;;;;;5033858;28;20406;-83
2022/12/17 16:54:57;;;;;;;24.15;19.63;;;;;;;;;;5051708;28;20742;-82
2022/12/17 16:57:23;;;;;;;24.45;19.42;;;;;;;;;;5051669;28;20381;-83
2022/12/17 16:59:49;;;;;;;24.77;20.02;;;;;;;;;;5048841;28;20411;-85
2022/12/17 17:02:15;;;;;;;27.20;20.65;;;;;;;;;;5046488;28;20728;-85
2022/12/17 17:04:41;;;;;;;32.35;23.55;;;;;;;;;;5051604;28;20377;-86
2022/12/17 17:07:07;;;;;;;39.80;26.63;;;;;;;;;;5050739;28;20388;-86
2022/12/17 17:09:33;;;;;;;32.58;23.95;;;;;;;;;;5051273;28;20420;-85
2022/12/17 17:11:59;;;;;;;28.02;20.92;;;;;;;;;;5048672;28;20548;-85
2022/12/17 17:14:25;;;;;;;24.75;20.52;;;;;;;;;;5024918;28;20472;-86
2022/12/17 17:16:51;;;;;;;24.00;20.33;;;;;;;;;;5049107;28;20412;-85
2022/12/17 17:19:18;;;;;;;24.85;20.98;;;;;;;;;;5048862;28;20524;-86
2022/12/17 17:21:51;;;;;;;26.95;21.55;;;;;;;;;;5049852;28;20378;-86
2022/12/17 17:24:18;;;;;;;28.77;22.60;;;;;;;;;;5032289;28;20412;-85
2022/12/17 17:26:44;;;;;;;29.38;22.80;;;;;;;;;;5035034;28;20387;-84
2022/12/17 17:29:10;;;;;;;27.45;21.70;;;;;;;;;;5050795;28;20400;-85
2022/12/17 17:31:36;;;;;;;28.42;23.40;;;;;;;;;;5032598;28;20433;-85
2022/12/17 17:34:07;;;;;;;29.13;22.38;;;;;;;;;;5040442;28;20605;-86
2022/12/17 17:36:33;;;;;;;25.35;22.00;;;;;;;;;;5051302;28;20404;-86
2022/12/17 17:39:00;;;;;;;29.27;23.27;;;;;;;;;;5051114;28;20855;-84
2022/12/17 17:41:27;;;;;;;29.05;22.73;;;;;;;;;;5051290;28;20377;-85
2022/12/17 17:44:14;;;;;;;29.33;22.92;;;;;;;;;;5029130;28;20393;-84
2022/12/17 17:46:40;;;;;;;26.60;21.92;;;;;;;;;;5043261;28;20385;-83
2022/12/17 17:49:07;;;;;;;26.80;22.05;;;;;;;;;;5049606;28;20468;-83
2022/12/17 17:51:34;;;;;;;28.98;23.45;;;;;;;;;;5051061;28;20413;-83
2022/12/17 17:54:01;;;;;;;27.00;22.40;;;;;;;;;;5051065;28;20396;-83
2022/12/17 17:56:29;;;;;;;28.27;23.50;;;;;;;;;;5051076;28;20778;-83
2022/12/17 17:58:56;;;;;;;30.27;23.83;;;;;;;;;;5046295;28;20419;-83
2022/12/17 18:01:24;;;;;;;30.83;23.55;;;;;;;;;;5034896;28;20390;-83
2022/12/17 18:03:50;;;;;;;26.67;22.15;;;;;;;;;;5050895;28;20385;-85
2022/12/17 18:06:16;;;;;;;29.63;24.23;;;;;;;;;;5050928;28;20456;-85
2022/12/17 18:08:43;;;;;;;33.22;25.20;;;;;;;;;;5050870;28;20385;-84
2022/12/17 18:11:13;;;;;;;43.22;31.33;;;;;;;;;;5039360;28;20426;-84
2022/12/17 18:13:55;;;;;;;44.15;31.45;;;;;;;;;;5045493;28;20390;-84
2022/12/17 18:16:22;;;;;;;44.03;30.67;;;;;;;;;;5043368;28;21043;-84
2022/12/17 18:18:48;;;;;;;41.55;30.05;;;;;;;;;;5050065;28;20389;-84
2022/12/17 18:21:16;;;;;;;38.45;28.23;;;;;;;;;;5049699;28;20385;-84
2022/12/17 18:23:42;;;;;;;36.72;26.90;;;;;;;;;;5045588;28;20401;-84
2022/12/17 18:26:13;;;;;;;32.92;25.75;;;;;;;;;;5042235;28;20399;-85
2022/12/17 18:28:39;;;;;;;31.23;24.58;;;;;;;;;;5037346;28;20490;-85
2022/12/17 18:31:06;;;;;;;32.60;25.52;;;;;;;;;;5046255;28;20400;-83
2022/12/17 18:33:32;;;;;;;33.20;25.40;;;;;;;;;;5041645;28;20397;-82
2022/12/17 18:35:58;;;;;;;34.65;25.00;;;;;;;;;;5039714;28;20481;-83
2022/12/17 18:38:24;;;;;;;30.45;24.13;;;;;;;;;;5040822;28;20465;-83
2022/12/17 18:40:50;;;;;;;30.23;24.00;;;;;;;;;;5036846;28;20398;-83
2022/12/17 18:43:22;;;;;;;31.02;24.58;;;;;;;;;;5037535;28;20416;-82
2022/12/17 18:45:49;;;;;;;31.02;25.17;;;;;;;;;;5036198;28;20408;-82
2022/12/17 18:48:15;;;;;;;30.20;25.13;;;;;;;;;;5036878;28;20403;-83
2022/12/17 18:50:41;;;;;;;30.63;25.02;;;;;;;;;;5036514;28;20453;-83
2022/12/17 18:53:07;;;;;;;30.63;24.67;;;;;;;;;;5036715;28;20913;-82
2022/12/17 18:55:33;;;;;;;31.45;25.10;;;;;;;;;;5041566;28;20468;-83
2022/12/17 18:58:00;;;;;;;30.53;24.07;;;;;;;;;;5040284;28;20488;-83
2022/12/17 19:00:26;;;;;;;29.98;24.73;;;;;;;;;;5037119;28;20413;-83
2022/12/17 19:02:52;;;;;;;32.22;24.70;;;;;;;;;;5033530;28;20409;-83
2022/12/17 19:05:18;;;;;;;34.83;25.58;;;;;;;;;;5043118;28;20870;-84
2022/12/17 19:07:44;;;;;;;33.13;25.80;;;;;;;;;;5034883;28;20413;-83
2022/12/17 19:10:10;;;;;;;31.20;24.95;;;;;;;;;;5043586;28;20414;-84
2022/12/17 19:12:36;;;;;;;33.40;25.45;;;;;;;;;;5042413;28;20425;-83
2022/12/17 19:15:02;;;;;;;32.17;25.52;;;;;;;;;;5045129;28;20384;-83
2022/12/17 19:17:28;;;;;;;34.47;26.20;;;;;;;;;;5036353;28;20721;-83
2022/12/17 19:19:54;;;;;;;33.63;25.40;;;;;;;;;;5035059;28;20965;-83
2022/12/17 19:22:20;;;;;;;34.00;25.70;;;;;;;;;;5045277;28;20453;-84
2022/12/17 19:24:46;;;;;;;33.20;25.77;;;;;;;;;;5043280;28;20439;-83
2022/12/17 19:27:12;;;;;;;34.88;25.98;;;;;;;;;;5045512;28;20763;-83
2022/12/17 19:29:38;;;;;;;31.57;24.60;;;;;;;;;;5039476;28;20399;-84
2022/12/17 19:32:04;;;;;;;34.67;25.85;;;;;;;;;;5037052;28;20417;-83
2022/12/17 19:34:31;;;;;;;33.65;25.70;;;;;;;;;;5037765;28;20851;-84
2022/12/17 19:36:57;;;;;;;33.17;26.10;;;;;;;;;;5034825;28;20377;-84
2022/12/17 19:39:23;;;;;;;33.43;25.63;;;;;;;;;;5021386;28;20413;-84
2022/12/17 19:41:49;;;;;;;34.55;25.48;;;;;;;;;;5036103;28;21149;-84
2022/12/17 19:44:16;;;;;;;33.78;25.90;;;;;;;;;;5015737;28;20435;-86
2022/12/17 19:46:42;;;;;;;32.53;25.33;;;;;;;;;;5038417;28;20393;-84
2022/12/17 19:49:10;;;;;;;33.63;24.95;;;;;;;;;;5038661;28;20462;-83
2022/12/17 19:51:39;;;;;;;31.77;25.00;;;;;;;;;;5019680;28;20922;-83
2022/12/17 19:54:05;;;;;;;33.28;25.33;;;;;;;;;;5036321;28;20381;-84
2022/12/17 19:56:31;;;;;;;35.88;26.52;;;;;;;;;;5036899;28;20375;-82
2022/12/17 19:59:00;;;;;;;36.65;26.70;;;;;;;;;;5037737;28;20401;-84
2022/12/17 20:01:28;;;;;;;35.15;25.48;;;;;;;;;;5034980;28;20490;-83
2022/12/17 20:03:54;;;;;;;35.83;26.43;;;;;;;;;;5021128;28;20406;-83
2022/12/17 20:06:23;;;;;;;35.80;26.37;;;;;;;;;;5035598;28;20508;-84
2022/12/17 20:08:49;;;;;;;33.83;25.50;;;;;;;;;;5025233;28;20397;-84
2022/12/17 20:11:34;;;;;;;38.00;26.80;;;;;;;;;;5033983;28;20569;-83
2022/12/17 20:14:00;;;;;;;37.10;28.17;;;;;;;;;;5037622;28;20730;-84
2022/12/17 20:16:33;;;;;;;36.70;27.52;;;;;;;;;;5033736;28;20390;-84
2022/12/17 20:18:59;;;;;;;39.50;28.45;;;;;;;;;;5017087;28;20470;-84
2022/12/17 20:21:25;;;;;;;36.90;28.05;;;;;;;;;;5017149;28;20390;-83
2022/12/17 20:23:51;;;;;;;41.90;29.38;;;;;;;;;;5038427;28;20414;-83
2022/12/17 20:26:18;;;;;;;42.58;31.02;;;;;;;;;;5022625;28;20407;-83
2022/12/17 20:28:44;;;;;;;42.70;31.17;;;;;;;;;;5019947;28;20488;-84
2022/12/17 20:31:11;;;;;;;41.80;29.43;;;;;;;;;;5023075;28;20394;-83
2022/12/17 20:33:37;;;;;;;40.22;29.50;;;;;;;;;;5037036;28;20756;-84
2022/12/17 20:36:04;;;;;;;41.83;29.92;;;;;;;;;;5039699;28;20393;-83
2022/12/17 20:38:30;;;;;;;41.83;30.00;;;;;;;;;;5050420;28;20880;-86
2022/12/17 20:40:57;;;;;;;40.63;29.10;;;;;;;;;;5023093;28;20900;-86
2022/12/17 20:43:23;;;;;;;44.03;30.50;;;;;;;;;;5013010;28;20404;-86
2022/12/17 20:45:49;;;;;;;45.13;31.63;;;;;;;;;;5032754;28;20383;-82
2022/12/17 20:48:15;;;;;;;46.63;31.70;;;;;;;;;;5042912;28;20412;-82
2022/12/17 20:50:42;;;;;;;44.85;31.45;;;;;;;;;;5049169;28;20385;-82
2022/12/17 20:53:08;;;;;;;47.13;32.60;;;;;;;;;;5032595;28;20413;-82
2022/12/17 20:55:34;;;;;;;45.28;31.77;;;;;;;;;;5049645;28;20385;-84
2022/12/17 20:58:00;;;;;;;44.63;31.15;;;;;;;;;;5035499;28;20383;-83
2022/12/17 21:00:26;;;;;;;43.88;31.83;;;;;;;;;;5031291;28;20422;-84
2022/12/17 21:02:52;;;;;;;44.08;31.38;;;;;;;;;;5043199;28;20391;-84
2022/12/17 21:05:17;;;;;;;47.45;32.45;;;;;;;;;;5031049;28;20403;-83
2022/12/17 21:07:44;;;;;;;46.65;32.65;;;;;;;;;;5031838;28;20378;-83
2022/12/17 21:10:10;;;;;;;48.17;33.40;;;;;;;;;;5030156;28;20395;-83
2022/12/17 21:15:21;;;;;;;49.85;33.75;;;;;;;;;;5030827;28;20430;-82
2022/12/17 21:17:47;;;;;;;51.20;34.45;;;;;;;;;;5030924;28;20379;-83
2022/12/17 21:20:14;;;;;;;53.80;35.75;;;;;;;;;;5029714;28;20410;-83
2022/12/17 21:22:40;;;;;;;54.55;36.60;;;;;;;;;;5029895;28;20382;-83
2022/12/17 21:25:06;;;;;;;57.53;35.92;;;;;;;;;;5033280;28;20401;-84
2022/12/17 21:27:33;;;;;;;52.60;34.92;;;;;;;;;;5032917;28;20755;-83
2022/12/17 21:29:59;;;;;;;55.58;36.63;;;;;;;;;;5032438;28;20452;-83
2022/12/17 21:32:25;;;;;;;58.60;38.10;;;;;;;;;;5034106;28;20406;-83
2022/12/17 21:34:51;;;;;;;57.78;37.60;;;;;;;;;;5030999;28;20377;-83
2022/12/17 21:37:17;;;;;;;55.63;37.53;;;;;;;;;;5031760;28;20470;-83
2022/12/17 21:39:43;;;;;;;55.92;36.60;;;;;;;;;;5030262;28;20884;-83
2022/12/17 21:44:54;;;;;;;52.95;35.33;;;;;;;;;;5032097;28;20383;-82
2022/12/17 21:47:21;;;;;;;53.88;34.95;;;;;;;;;;5029714;28;20380;-83
2022/12/17 21:49:46;;;;;;;55.63;34.85;;;;;;;;;;5036873;28;20408;-83
2022/12/17 21:52:12;;;;;;;60.65;37.35;;;;;;;;;;5037182;28;20413;-83
2022/12/17 21:54:38;;;;;;;58.85;36.25;;;;;;;;;;5038720;28;20935;-83
2022/12/17 21:57:04;;;;;;;58.67;36.42;;;;;;;;;;5037141;28;20376;-83
2022/12/17 21:59:30;;;;;;;59.10;36.13;;;;;;;;;;5035781;28;20407;-83
2022/12/17 22:01:56;;;;;;;58.72;36.47;;;;;;;;;;5036254;28;20577;-83
2022/12/17 22:04:23;;;;;;;56.95;36.67;;;;;;;;;;5033611;28;20462;-84
2022/12/17 22:06:50;;;;;;;56.28;36.05;;;;;;;;;;5032731;28;20379;-82
2022/12/17 22:09:16;;;;;;;59.17;36.88;;;;;;;;;;5037488;28;20721;-83
2022/12/17 22:11:42;;;;;;;58.47;36.80;;;;;;;;;;5034727;28;20413;-83
2022/12/17 22:14:11;;;;;;;56.42;35.83;;;;;;;;;;5036025;28;20391;-84
2022/12/17 22:16:46;;;;;;;56.60;36.63;;;;;;;;;;5034272;28;20387;-83
2022/12/17 22:19:13;;;;;;;62.65;37.47;;;;;;;;;;5033266;28;20379;-83
2022/12/17 22:21:41;;;;;;;59.47;36.58;;;;;;;;;;5032721;28;20783;-82
2022/12/17 22:24:07;;;;;;;59.78;37.22;;;;;;;;;;5032530;28;20480;-84
2022/12/17 22:26:33;;;;;;;58.20;36.85;;;;;;;;;;5037158;28;20872;-83
2022/12/17 22:28:59;;;;;;;61.72;37.50;;;;;;;;;;5033793;28;20411;-84
2022/12/17 22:34:11;;;;;;;63.47;37.47;;;;;;;;;;5035089;28;20784;-82
2022/12/17 22:36:40;;;;;;;61.30;37.63;;;;;;;;;;5034096;28;20877;-84
2022/12/17 22:39:08;;;;;;;62.65;37.38;;;;;;;;;;5032766;28;20729;-83
2022/12/17 22:44:19;;;;;;;64.70;38.97;;;;;;;;;;5035240;28;20429;-83
2022/12/17 22:46:45;;;;;;;64.22;39.13;;;;;;;;;;5044223;28;20397;-84
2022/12/17 22:49:11;;;;;;;65.72;39.58;;;;;;;;;;5049028;28;20461;-83
2022/12/17 22:51:37;;;;;;;60.60;37.33;;;;;;;;;;5050523;28;20413;-83
2022/12/17 22:54:06;;;;;;;64.10;39.60;;;;;;;;;;5049639;28;20886;-83
2022/12/17 22:56:33;;;;;;;65.07;37.92;;;;;;;;;;5049682;28;20373;-84
2022/12/17 22:58:59;;;;;;;61.53;37.77;;;;;;;;;;5047840;28;20564;-83
2022/12/17 23:01:26;;;;;;;58.17;37.05;;;;;;;;;;5050263;28;20480;-84
2022/12/17 23:03:58;;;;;;;62.88;37.95;;;;;;;;;;5047188;28;20440;-83
2022/12/17 23:06:24;;;;;;;63.92;37.67;;;;;;;;;;5050759;28;20377;-83
2022/12/17 23:08:51;;;;;;;63.80;37.58;;;;;;;;;;5050268;28;20390;-84
2022/12/17 23:11:18;;;;;;;64.57;37.30;;;;;;;;;;5050514;28;20415;-84
2022/12/17 23:13:50;;;;;;;63.85;37.25;;;;;;;;;;5050408;28;20432;-84
2022/12/17 23:16:17;;;;;;;60.05;36.53;;;;;;;;;;5048185;28;20412;-83
2022/12/17 23:18:43;;;;;;;58.00;34.55;;;;;;;;;;5050391;28;20385;-82
2022/12/17 23:21:17;;;;;;;63.72;37.42;;;;;;;;;;5050821;28;20413;-83
2022/12/17 23:23:43;;;;;;;59.92;36.67;;;;;;;;;;5050825;28;20866;-82
2022/12/17 23:26:12;;;;;;;59.92;35.90;;;;;;;;;;5048717;28;20409;-84
2022/12/17 23:28:38;;;;;;;62.33;36.57;;;;;;;;;;5048618;28;20468;-84
2022/12/17 23:31:05;;;;;;;61.72;36.42;;;;;;;;;;5050538;28;20431;-83
2022/12/17 23:33:31;;;;;;;63.25;37.08;;;;;;;;;;5050719;28;20373;-84
2022/12/17 23:36:07;;;;;;;61.13;35.03;;;;;;;;;;5050984;28;20399;-82
2022/12/17 23:38:34;;;;;;;60.33;36.20;;;;;;;;;;5050599;28;20396;-84
2022/12/17 23:41:07;;;;;;;60.65;36.55;;;;;;;;;;5050909;28;20461;-84
2022/12/17 23:43:33;;;;;;;59.28;35.67;;;;;;;;;;5050734;28;20420;-85
2022/12/17 23:46:00;;;;;;;64.50;37.60;;;;;;;;;;5050786;28;20409;-83
2022/12/17 23:48:32;;;;;;;60.17;36.38;;;;;;;;;;5050731;28;20444;-82
2022/12/17 23:50:58;;;;;;;64.43;36.60;;;;;;;;;;5050352;28;21038;-84
2022/12/17 23:53:27;;;;;;;63.10;36.40;;;;;;;;;;5049555;28;20922;-84
2022/12/17 23:55:53;;;;;;;64.85;37.45;;;;;;;;;;5050103;28;20774;-83
2022/12/17 23:58:19;;;;;;;61.78;35.75;;;;;;;;;;5049847;28;20377;-84
